createdAt,value
2017-02-01T00:00:46.668Z,1011.85
2017-02-01T00:01:46.725Z,1011.9
2017-02-01T00:02:46.679Z,1011.88
2017-02-01T00:03:46.687Z,1011.92
2017-02-01T00:04:46.694Z,1011.92
2017-02-01T00:05:46.707Z,1011.94
2017-02-01T00:06:46.757Z,1011.91
2017-02-01T00:07:46.714Z,1011.9
2017-02-01T00:08:46.770Z,1011.89
2017-02-01T00:09:46.729Z,1011.92
2017-02-01T00:10:46.734Z,1011.92
2017-02-01T00:11:46.741Z,1011.91
2017-02-01T00:12:46.748Z,1011.93
2017-02-01T00:13:46.755Z,1011.95
2017-02-01T00:14:46.761Z,1011.96
2017-02-01T00:15:46.818Z,1011.99
2017-02-01T00:16:46.776Z,1012.01
2017-02-01T00:17:46.782Z,1012
2017-02-01T00:18:46.841Z,1012
2017-02-01T00:19:46.846Z,1011.98
2017-02-01T00:20:46.852Z,1012.01
2017-02-01T00:21:46.807Z,1012.01
2017-02-01T00:22:46.811Z,1011.97
2017-02-01T00:23:46.872Z,1011.98
2017-02-01T00:24:46.827Z,1011.98
2017-02-01T00:25:46.834Z,1011.95
2017-02-01T00:26:46.841Z,1011.94
2017-02-01T00:27:46.899Z,1011.98
2017-02-01T00:28:46.918Z,1011.93
2017-02-01T00:29:46.859Z,1011.95
2017-02-01T00:30:46.917Z,1011.96
2017-02-01T00:31:46.875Z,1011.93
2017-02-01T00:32:46.880Z,1012
2017-02-01T00:33:46.889Z,1011.97
2017-02-01T00:34:46.895Z,1011.98
2017-02-01T00:35:46.922Z,1011.98
2017-02-01T00:36:46.955Z,1012.01
2017-02-01T00:37:46.966Z,1012.01
2017-02-01T00:38:46.923Z,1012.01
2017-02-01T00:39:46.975Z,1012
2017-02-01T00:40:46.930Z,1011.97
2017-02-01T00:41:46.939Z,1012.02
2017-02-01T00:42:46.945Z,1012
2017-02-01T00:43:47.002Z,1011.96
2017-02-01T00:44:46.958Z,1012.01
2017-02-01T00:45:46.965Z,1011.95
2017-02-01T00:46:47.022Z,1011.96
2017-02-01T00:47:46.977Z,1011.93
2017-02-01T00:48:46.985Z,1011.94
2017-02-01T00:49:46.992Z,1011.93
2017-02-01T00:50:47.046Z,1011.92
2017-02-01T00:51:47.053Z,1011.93
2017-02-01T00:52:47.008Z,1011.94
2017-02-01T00:53:47.015Z,1011.88
2017-02-01T00:54:47.026Z,1011.88
2017-02-01T00:55:47.029Z,1011.9
2017-02-01T00:56:47.086Z,1011.91
2017-02-01T00:57:47.043Z,1011.92
2017-02-01T00:58:47.048Z,1011.84
2017-02-01T00:59:47.054Z,1011.84
2017-02-01T01:00:47.062Z,1011.84
2017-02-01T01:01:47.067Z,1011.84
2017-02-01T01:02:47.074Z,1011.83
2017-02-01T01:03:47.080Z,1011.84
2017-02-01T01:04:47.088Z,1011.81
2017-02-01T01:05:47.145Z,1011.79
2017-02-01T01:06:47.100Z,1011.81
2017-02-01T01:07:47.457Z,1011.85
2017-02-01T01:08:47.163Z,1011.82
2017-02-01T01:09:47.120Z,1011.73
2017-02-01T01:10:47.125Z,1011.75
2017-02-01T01:11:47.184Z,1011.72
2017-02-01T01:12:47.172Z,1011.71
2017-02-01T01:13:47.145Z,1011.73
2017-02-01T01:14:47.150Z,1011.75
2017-02-01T01:15:47.160Z,1011.76
2017-02-01T01:16:47.163Z,1011.76
2017-02-01T01:17:47.169Z,1011.74
2017-02-01T01:18:47.175Z,1011.74
2017-02-01T01:19:47.182Z,1011.71
2017-02-01T01:20:47.189Z,1011.68
2017-02-01T01:21:47.196Z,1011.68
2017-02-01T01:22:47.202Z,1011.71
2017-02-01T01:23:47.208Z,1011.68
2017-02-01T01:24:47.215Z,1011.7
2017-02-01T01:25:47.271Z,1011.7
2017-02-01T01:26:47.230Z,1011.76
2017-02-01T01:27:47.232Z,1011.7
2017-02-01T01:28:47.240Z,1011.73
2017-02-01T01:29:47.247Z,1011.71
2017-02-01T01:30:47.303Z,1011.67
2017-02-01T01:31:47.263Z,1011.71
2017-02-01T01:32:47.266Z,1011.65
2017-02-01T01:33:47.274Z,1011.65
2017-02-01T01:34:47.280Z,1011.66
2017-02-01T01:35:47.286Z,1011.69
2017-02-01T01:36:47.290Z,1011.68
2017-02-01T01:37:47.298Z,1011.65
2017-02-01T01:38:47.355Z,1011.68
2017-02-01T01:39:47.309Z,1011.67
2017-02-01T01:40:47.317Z,1011.7
2017-02-01T01:41:47.323Z,1011.7
2017-02-01T01:42:47.332Z,1011.67
2017-02-01T01:43:47.336Z,1011.7
2017-02-01T01:44:47.343Z,1011.67
2017-02-01T01:45:47.349Z,1011.63
2017-02-01T01:46:47.405Z,1011.67
2017-02-01T01:47:47.411Z,1011.66
2017-02-01T01:48:47.370Z,1011.66
2017-02-01T01:49:47.374Z,1011.64
2017-02-01T01:50:47.385Z,1011.61
2017-02-01T01:51:47.388Z,1011.64
2017-02-01T01:52:47.444Z,1011.63
2017-02-01T01:53:47.399Z,1011.62
2017-02-01T01:54:47.456Z,1011.68
2017-02-01T01:55:47.412Z,1011.64
2017-02-01T01:56:47.421Z,1011.65
2017-02-01T01:57:47.426Z,1011.66
2017-02-01T01:58:47.480Z,1011.7
2017-02-01T01:59:47.438Z,1011.69
2017-02-01T02:00:47.446Z,1011.69
2017-02-01T02:01:47.450Z,1011.66
2017-02-01T02:02:47.508Z,1011.69
2017-02-01T02:03:47.463Z,1011.69
2017-02-01T02:04:47.469Z,1011.71
2017-02-01T02:05:47.477Z,1011.73
2017-02-01T02:06:47.482Z,1011.71
2017-02-01T02:07:47.538Z,1011.78
2017-02-01T02:08:47.543Z,1011.72
2017-02-01T02:09:47.500Z,1011.73
2017-02-01T02:10:47.508Z,1011.74
2017-02-01T02:11:47.515Z,1011.7
2017-02-01T02:12:47.520Z,1011.7
2017-02-01T02:13:47.528Z,1011.66
2017-02-01T02:14:47.532Z,1011.67
2017-02-01T02:15:47.539Z,1011.63
2017-02-01T02:16:47.546Z,1011.69
2017-02-01T02:17:47.551Z,1011.67
2017-02-01T02:18:47.607Z,1011.64
2017-02-01T02:19:47.565Z,1011.63
2017-02-01T02:20:47.570Z,1011.62
2017-02-01T02:21:47.577Z,1011.63
2017-02-01T02:22:47.584Z,1011.64
2017-02-01T02:23:47.639Z,1011.65
2017-02-01T02:24:47.595Z,1011.63
2017-02-01T02:25:47.606Z,1011.64
2017-02-01T02:26:47.610Z,1011.66
2017-02-01T02:27:47.614Z,1011.61
2017-02-01T02:28:47.622Z,1011.6
2017-02-01T02:29:47.629Z,1011.63
2017-02-01T02:30:47.635Z,1011.64
2017-02-01T02:31:47.642Z,1011.62
2017-02-01T02:32:47.699Z,1011.62
2017-02-01T02:33:47.654Z,1011.62
2017-02-01T02:34:47.660Z,1011.59
2017-02-01T02:35:47.667Z,1011.6
2017-02-01T02:36:47.675Z,1011.55
2017-02-01T02:37:47.680Z,1011.56
2017-02-01T02:38:47.688Z,1011.5
2017-02-01T02:39:47.744Z,1011.57
2017-02-01T02:40:47.752Z,1011.52
2017-02-01T02:41:47.708Z,1011.5
2017-02-01T02:42:47.713Z,1011.53
2017-02-01T02:43:47.720Z,1011.57
2017-02-01T02:44:47.726Z,1011.56
2017-02-01T02:45:47.732Z,1011.54
2017-02-01T02:46:47.740Z,1011.52
2017-02-01T02:47:47.745Z,1011.56
2017-02-01T02:48:47.753Z,1011.53
2017-02-01T02:49:47.808Z,1011.52
2017-02-01T02:50:47.768Z,1011.53
2017-02-01T02:51:47.772Z,1011.47
2017-02-01T02:52:47.778Z,1011.49
2017-02-01T02:53:47.787Z,1011.47
2017-02-01T02:54:47.792Z,1011.45
2017-02-01T02:55:47.799Z,1011.47
2017-02-01T02:56:47.806Z,1011.47
2017-02-01T02:57:47.812Z,1011.48
2017-02-01T02:58:47.817Z,1011.44
2017-02-01T02:59:47.826Z,1011.41
2017-02-01T03:00:47.832Z,1011.43
2017-02-01T03:01:47.889Z,1011.4
2017-02-01T03:02:47.845Z,1011.33
2017-02-01T03:03:47.880Z,1011.36
2017-02-01T03:04:47.859Z,1011.37
2017-02-01T03:05:47.915Z,1011.34
2017-02-01T03:06:47.871Z,1011.36
2017-02-01T03:07:47.881Z,1011.35
2017-02-01T03:08:47.885Z,1011.35
2017-02-01T03:09:47.891Z,1011.4
2017-02-01T03:10:47.897Z,1011.37
2017-02-01T03:11:47.903Z,1011.33
2017-02-01T03:12:47.914Z,1011.3
2017-02-01T03:13:47.920Z,1011.33
2017-02-01T03:14:47.923Z,1011.3
2017-02-01T03:15:47.981Z,1011.3
2017-02-01T03:16:47.984Z,1011.3
2017-02-01T03:17:47.942Z,1011.28
2017-02-01T03:18:47.999Z,1011.26
2017-02-01T03:19:47.960Z,1011.24
2017-02-01T03:20:48.009Z,1011.24
2017-02-01T03:21:48.017Z,1011.2
2017-02-01T03:22:47.973Z,1011.25
2017-02-01T03:23:47.979Z,1011.18
2017-02-01T03:24:47.986Z,1011.19
2017-02-01T03:25:48.042Z,1011.16
2017-02-01T03:26:47.999Z,1011.18
2017-02-01T03:27:48.005Z,1011.25
2017-02-01T03:28:48.061Z,1011.25
2017-02-01T03:29:48.020Z,1011.25
2017-02-01T03:30:48.024Z,1011.28
2017-02-01T03:31:48.035Z,1011.26
2017-02-01T03:32:48.036Z,1011.25
2017-02-01T03:33:48.092Z,1011.23
2017-02-01T03:34:48.049Z,1011.24
2017-02-01T03:35:48.054Z,1011.24
2017-02-01T03:36:48.066Z,1011.18
2017-02-01T03:37:48.068Z,1011.18
2017-02-01T03:38:48.073Z,1011.16
2017-02-01T03:39:48.081Z,1011.16
2017-02-01T03:40:48.088Z,1011.21
2017-02-01T03:41:48.095Z,1011.18
2017-02-01T03:42:48.099Z,1011.21
2017-02-01T03:43:48.106Z,1011.19
2017-02-01T03:44:48.113Z,1011.19
2017-02-01T03:45:48.120Z,1011.24
2017-02-01T03:46:48.126Z,1011.22
2017-02-01T03:47:48.132Z,1011.25
2017-02-01T03:48:48.137Z,1011.22
2017-02-01T03:49:48.144Z,1011.22
2017-02-01T03:50:48.149Z,1011.2
2017-02-01T03:51:48.157Z,1011.18
2017-02-01T03:52:48.163Z,1011.17
2017-02-01T03:53:48.174Z,1011.21
2017-02-01T03:54:48.177Z,1011.23
2017-02-01T03:55:48.183Z,1011.18
2017-02-01T03:56:48.189Z,1011.14
2017-02-01T03:57:48.194Z,1011.17
2017-02-01T03:58:48.201Z,1011.15
2017-02-01T03:59:48.210Z,1011.13
2017-02-01T04:00:48.264Z,1011.15
2017-02-01T04:01:48.221Z,1011.14
2017-02-01T04:02:48.235Z,1011.13
2017-02-01T04:03:48.233Z,1011.15
2017-02-01T04:04:48.240Z,1011.17
2017-02-01T04:05:48.245Z,1011.17
2017-02-01T04:06:48.301Z,1011.13
2017-02-01T04:07:48.260Z,1011.13
2017-02-01T04:08:48.264Z,1011.11
2017-02-01T04:09:48.271Z,1011.13
2017-02-01T04:10:48.277Z,1011.11
2017-02-01T04:11:48.283Z,1011.06
2017-02-01T04:12:48.289Z,1011.07
2017-02-01T04:13:48.296Z,1011.11
2017-02-01T04:14:48.302Z,1011.08
2017-02-01T04:15:48.308Z,1011.09
2017-02-01T04:16:48.317Z,1011.07
2017-02-01T04:17:48.375Z,1011.05
2017-02-01T04:18:48.328Z,1011.05
2017-02-01T04:19:48.333Z,1011.03
2017-02-01T04:20:48.342Z,1011
2017-02-01T04:21:48.346Z,1011
2017-02-01T04:22:48.352Z,1010.98
2017-02-01T04:23:48.359Z,1010.97
2017-02-01T04:24:48.365Z,1011
2017-02-01T04:25:48.372Z,1010.97
2017-02-01T04:26:48.377Z,1010.98
2017-02-01T04:27:48.383Z,1010.96
2017-02-01T04:28:48.391Z,1010.96
2017-02-01T04:29:48.401Z,1010.95
2017-02-01T04:30:48.403Z,1010.98
2017-02-01T04:31:48.409Z,1010.97
2017-02-01T04:32:48.465Z,1010.96
2017-02-01T04:33:48.422Z,1010.97
2017-02-01T04:34:48.426Z,1010.95
2017-02-01T04:35:48.435Z,1011.02
2017-02-01T04:36:48.492Z,1011.04
2017-02-01T04:37:48.448Z,1011.01
2017-02-01T04:38:48.453Z,1011.05
2017-02-01T04:39:48.462Z,1011.03
2017-02-01T04:40:48.465Z,1011.02
2017-02-01T04:41:48.522Z,1011.03
2017-02-01T04:42:48.480Z,1011.04
2017-02-01T04:43:48.486Z,1011.03
2017-02-01T04:44:48.491Z,1011.04
2017-02-01T04:45:48.548Z,1011.04
2017-02-01T04:46:48.504Z,1011.06
2017-02-01T04:47:48.511Z,1011.03
2017-02-01T04:48:48.515Z,1011.04
2017-02-01T04:49:48.525Z,1011.04
2017-02-01T04:50:48.529Z,1011.05
2017-02-01T04:51:48.585Z,1011.04
2017-02-01T04:52:48.542Z,1011.01
2017-02-01T04:53:48.549Z,1011.03
2017-02-01T04:54:48.554Z,1011.01
2017-02-01T04:55:48.560Z,1010.97
2017-02-01T04:56:48.566Z,1011
2017-02-01T04:57:48.573Z,1010.97
2017-02-01T04:58:48.579Z,1010.93
2017-02-01T04:59:48.586Z,1010.96
2017-02-01T05:00:48.592Z,1010.99
2017-02-01T05:01:48.598Z,1010.98
2017-02-01T05:02:48.603Z,1011.01
2017-02-01T05:03:48.659Z,1010.98
2017-02-01T05:04:48.619Z,1010.97
2017-02-01T05:05:48.623Z,1010.98
2017-02-01T05:06:48.631Z,1011.01
2017-02-01T05:07:48.636Z,1010.98
2017-02-01T05:08:48.643Z,1010.97
2017-02-01T05:09:48.650Z,1010.98
2017-02-01T05:10:48.656Z,1011
2017-02-01T05:11:48.661Z,1011.01
2017-02-01T05:12:48.668Z,1011.02
2017-02-01T05:13:48.727Z,1011.03
2017-02-01T05:14:48.681Z,1011.04
2017-02-01T05:15:48.687Z,1011.02
2017-02-01T05:16:48.695Z,1011.04
2017-02-01T05:17:48.700Z,1011.02
2017-02-01T05:18:48.706Z,1011.03
2017-02-01T05:19:48.713Z,1011.04
2017-02-01T05:20:48.721Z,1011.03
2017-02-01T05:21:48.725Z,1011.03
2017-02-01T05:22:48.731Z,1011.01
2017-02-01T05:23:48.769Z,1011.01
2017-02-01T05:24:48.745Z,1011.01
2017-02-01T05:25:48.751Z,1011.05
2017-02-01T05:26:48.756Z,1011.02
2017-02-01T05:27:48.764Z,1011.05
2017-02-01T05:28:48.771Z,1011.03
2017-02-01T05:29:48.776Z,1011.02
2017-02-01T05:30:48.783Z,1011.01
2017-02-01T05:31:48.792Z,1011.01
2017-02-01T05:32:48.795Z,1011.01
2017-02-01T05:33:48.854Z,1011.01
2017-02-01T05:34:48.810Z,1011.03
2017-02-01T05:35:48.815Z,1010.98
2017-02-01T05:36:48.821Z,1011.03
2017-02-01T05:37:48.878Z,1011
2017-02-01T05:38:48.835Z,1011
2017-02-01T05:39:48.840Z,1011.01
2017-02-01T05:40:48.848Z,1011.02
2017-02-01T05:41:48.854Z,1011.02
2017-02-01T05:42:48.862Z,1011
2017-02-01T05:43:48.917Z,1011.03
2017-02-01T05:44:48.873Z,1010.99
2017-02-01T05:45:48.880Z,1011.01
2017-02-01T05:46:48.888Z,1011
2017-02-01T05:47:48.898Z,1011
2017-02-01T05:48:48.898Z,1010.96
2017-02-01T05:49:48.957Z,1010.98
2017-02-01T05:50:48.913Z,1010.96
2017-02-01T05:51:48.969Z,1010.96
2017-02-01T05:52:48.925Z,1010.98
2017-02-01T05:53:48.933Z,1010.98
2017-02-01T05:54:48.938Z,1010.96
2017-02-01T05:55:48.946Z,1010.98
2017-02-01T05:56:48.951Z,1010.99
2017-02-01T05:57:48.957Z,1011
2017-02-01T05:58:48.963Z,1011.01
2017-02-01T05:59:49.020Z,1011.01
2017-02-01T06:00:48.976Z,1010.99
2017-02-01T06:01:48.988Z,1010.95
2017-02-01T06:02:48.989Z,1010.97
2017-02-01T06:03:48.996Z,1011.02
2017-02-01T06:04:49.003Z,1010.98
2017-02-01T06:05:49.009Z,1010.95
2017-02-01T06:06:49.017Z,1010.95
2017-02-01T06:07:49.024Z,1010.93
2017-02-01T06:08:49.077Z,1010.94
2017-02-01T06:09:49.035Z,1010.92
2017-02-01T06:10:49.042Z,1010.96
2017-02-01T06:11:49.099Z,1010.91
2017-02-01T06:12:49.054Z,1010.94
2017-02-01T06:13:49.060Z,1010.91
2017-02-01T06:14:49.063Z,1010.92
2017-02-01T06:15:49.072Z,1010.92
2017-02-01T06:16:49.129Z,1010.91
2017-02-01T06:17:49.085Z,1010.89
2017-02-01T06:18:49.090Z,1010.9
2017-02-01T06:19:49.097Z,1010.86
2017-02-01T06:20:49.102Z,1010.88
2017-02-01T06:21:49.108Z,1010.91
2017-02-01T06:22:49.115Z,1010.88
2017-02-01T06:23:49.120Z,1010.87
2017-02-01T06:24:49.129Z,1010.89
2017-02-01T06:25:49.133Z,1010.86
2017-02-01T06:26:49.142Z,1010.9
2017-02-01T06:27:49.147Z,1010.87
2017-02-01T06:28:49.153Z,1010.94
2017-02-01T06:29:49.161Z,1010.92
2017-02-01T06:30:49.216Z,1010.96
2017-02-01T06:31:49.173Z,1010.91
2017-02-01T06:32:49.180Z,1010.9
2017-02-01T06:33:49.185Z,1010.93
2017-02-01T06:34:49.192Z,1010.97
2017-02-01T06:35:49.203Z,1011.02
2017-02-01T06:36:49.205Z,1010.96
2017-02-01T06:37:49.211Z,1010.97
2017-02-01T06:38:49.215Z,1010.95
2017-02-01T06:39:49.223Z,1010.93
2017-02-01T06:40:49.229Z,1010.94
2017-02-01T06:41:49.235Z,1010.94
2017-02-01T06:42:49.245Z,1010.94
2017-02-01T06:43:49.298Z,1010.96
2017-02-01T06:44:49.254Z,1010.91
2017-02-01T06:45:49.259Z,1010.9
2017-02-01T06:46:49.267Z,1010.85
2017-02-01T06:47:49.273Z,1010.93
2017-02-01T06:48:49.328Z,1010.85
2017-02-01T06:49:49.284Z,1010.87
2017-02-01T06:50:49.292Z,1010.89
2017-02-01T06:51:49.297Z,1010.87
2017-02-01T06:52:49.351Z,1010.85
2017-02-01T06:53:49.310Z,1010.88
2017-02-01T06:54:49.316Z,1010.9
2017-02-01T06:55:49.322Z,1010.86
2017-02-01T06:56:49.328Z,1010.86
2017-02-01T06:57:49.386Z,1010.83
2017-02-01T06:58:49.339Z,1010.9
2017-02-01T06:59:49.349Z,1010.88
2017-02-01T07:00:49.402Z,1010.86
2017-02-01T07:01:49.359Z,1010.87
2017-02-01T07:02:49.367Z,1010.9
2017-02-01T07:03:49.370Z,1010.92
2017-02-01T07:04:49.379Z,1010.92
2017-02-01T07:05:49.414Z,1010.86
2017-02-01T07:06:49.391Z,1010.9
2017-02-01T07:07:49.449Z,1010.93
2017-02-01T07:08:49.402Z,1010.91
2017-02-01T07:09:49.409Z,1010.91
2017-02-01T07:10:49.466Z,1010.87
2017-02-01T07:11:49.422Z,1010.91
2017-02-01T07:12:49.432Z,1010.94
2017-02-01T07:13:49.437Z,1010.91
2017-02-01T07:14:49.442Z,1010.9
2017-02-01T07:15:49.448Z,1010.93
2017-02-01T07:16:49.455Z,1010.94
2017-02-01T07:17:49.462Z,1010.92
2017-02-01T07:18:49.467Z,1010.87
2017-02-01T07:19:49.473Z,1010.91
2017-02-01T07:20:49.530Z,1010.9
2017-02-01T07:21:49.488Z,1010.88
2017-02-01T07:22:49.494Z,1010.88
2017-02-01T07:23:49.500Z,1010.87
2017-02-01T07:24:49.510Z,1010.89
2017-02-01T07:25:49.514Z,1010.87
2017-02-01T07:26:49.520Z,1010.9
2017-02-01T07:27:49.526Z,1010.92
2017-02-01T07:28:49.584Z,1010.9
2017-02-01T07:29:49.539Z,1010.88
2017-02-01T07:30:49.544Z,1010.88
2017-02-01T07:31:49.550Z,1010.86
2017-02-01T07:32:49.558Z,1010.9
2017-02-01T07:33:49.566Z,1010.92
2017-02-01T07:34:49.569Z,1010.93
2017-02-01T07:35:49.628Z,1011
2017-02-01T07:36:49.584Z,1010.96
2017-02-01T07:37:49.591Z,1010.94
2017-02-01T07:38:49.597Z,1010.97
2017-02-01T07:39:49.655Z,1010.94
2017-02-01T07:40:49.914Z,1010.97
2017-02-01T07:41:49.669Z,1010.96
2017-02-01T07:42:49.626Z,1010.93
2017-02-01T07:43:50.182Z,1010.97
2017-02-01T07:44:49.690Z,1011
2017-02-01T07:45:49.645Z,1010.96
2017-02-01T07:46:49.654Z,1010.92
2017-02-01T07:47:49.709Z,1010.99
2017-02-01T07:48:49.670Z,1010.99
2017-02-01T07:49:49.696Z,1010.96
2017-02-01T07:50:49.729Z,1010.99
2017-02-01T07:51:49.936Z,1010.99
2017-02-01T07:52:49.694Z,1010.96
2017-02-01T07:53:49.699Z,1010.97
2017-02-01T07:54:49.707Z,1010.97
2017-02-01T07:55:49.714Z,1010.95
2017-02-01T07:56:49.722Z,1011
2017-02-01T07:57:49.731Z,1010.98
2017-02-01T07:58:49.786Z,1010.97
2017-02-01T07:59:49.793Z,1010.99
2017-02-01T08:00:49.800Z,1011
2017-02-01T08:01:49.756Z,1010.97
2017-02-01T08:02:49.765Z,1011
2017-02-01T08:03:49.772Z,1011
2017-02-01T08:04:49.778Z,1010.99
2017-02-01T08:05:49.785Z,1010.97
2017-02-01T08:06:49.793Z,1010.98
2017-02-01T08:07:49.800Z,1010.98
2017-02-01T08:08:49.807Z,1010.98
2017-02-01T08:09:49.864Z,1010.95
2017-02-01T08:10:49.870Z,1010.96
2017-02-01T08:11:49.879Z,1010.99
2017-02-01T08:12:49.833Z,1010.95
2017-02-01T08:13:49.842Z,1010.95
2017-02-01T08:14:49.849Z,1010.95
2017-02-01T08:15:49.856Z,1010.91
2017-02-01T08:16:49.864Z,1010.93
2017-02-01T08:17:49.869Z,1010.93
2017-02-01T08:18:49.881Z,1010.91
2017-02-01T08:19:49.886Z,1010.9
2017-02-01T08:20:49.891Z,1010.92
2017-02-01T08:21:49.900Z,1010.88
2017-02-01T08:22:49.906Z,1010.88
2017-02-01T08:23:49.912Z,1010.86
2017-02-01T08:24:49.918Z,1010.86
2017-02-01T08:25:49.926Z,1010.86
2017-02-01T08:26:49.933Z,1010.89
2017-02-01T08:27:49.940Z,1010.88
2017-02-01T08:28:49.946Z,1010.88
2017-02-01T08:29:49.956Z,1010.88
2017-02-01T08:30:49.961Z,1010.87
2017-02-01T08:31:50.018Z,1010.9
2017-02-01T08:32:49.974Z,1010.87
2017-02-01T08:33:49.984Z,1010.86
2017-02-01T08:34:49.988Z,1010.87
2017-02-01T08:35:50.000Z,1010.91
2017-02-01T08:36:50.004Z,1010.91
2017-02-01T08:37:50.012Z,1010.9
2017-02-01T08:38:50.068Z,1010.93
2017-02-01T08:39:50.091Z,1010.91
2017-02-01T08:40:50.033Z,1010.94
2017-02-01T08:41:50.038Z,1010.91
2017-02-01T08:42:50.045Z,1010.95
2017-02-01T08:43:50.055Z,1010.94
2017-02-01T08:44:50.062Z,1010.94
2017-02-01T08:45:50.068Z,1010.95
2017-02-01T08:46:50.074Z,1010.91
2017-02-01T08:47:50.133Z,1010.93
2017-02-01T08:48:50.090Z,1010.91
2017-02-01T08:49:50.145Z,1010.89
2017-02-01T08:50:50.103Z,1010.92
2017-02-01T08:51:50.110Z,1010.82
2017-02-01T08:52:50.169Z,1010.84
2017-02-01T08:53:50.123Z,1010.85
2017-02-01T08:54:50.131Z,1010.82
2017-02-01T08:55:50.138Z,1010.82
2017-02-01T08:56:50.145Z,1010.83
2017-02-01T08:57:50.156Z,1010.81
2017-02-01T08:58:50.160Z,1010.81
2017-02-01T08:59:50.172Z,1010.82
2017-02-01T09:00:50.224Z,1010.83
2017-02-01T09:01:50.230Z,1010.81
2017-02-01T09:02:50.186Z,1010.79
2017-02-01T09:03:50.194Z,1010.78
2017-02-01T09:04:50.253Z,1010.83
2017-02-01T09:05:50.210Z,1010.79
2017-02-01T09:06:50.217Z,1010.83
2017-02-01T09:07:50.272Z,1010.8
2017-02-01T09:08:50.230Z,1010.81
2017-02-01T09:09:50.287Z,1010.79
2017-02-01T09:10:50.244Z,1010.76
2017-02-01T09:11:50.251Z,1010.74
2017-02-01T09:12:50.559Z,1010.77
2017-02-01T09:13:50.266Z,1010.79
2017-02-01T09:14:50.273Z,1010.8
2017-02-01T09:15:50.284Z,1010.83
2017-02-01T09:16:50.288Z,1010.84
2017-02-01T09:17:50.296Z,1010.8
2017-02-01T09:18:50.302Z,1010.8
2017-02-01T09:19:50.309Z,1010.8
2017-02-01T09:20:50.322Z,1010.79
2017-02-01T09:21:50.324Z,1010.76
2017-02-01T09:22:50.381Z,1010.76
2017-02-01T09:23:50.338Z,1010.8
2017-02-01T09:24:50.398Z,1010.79
2017-02-01T09:25:50.352Z,1010.78
2017-02-01T09:26:50.359Z,1010.76
2017-02-01T09:27:50.367Z,1010.78
2017-02-01T09:28:50.373Z,1010.75
2017-02-01T09:29:50.381Z,1010.73
2017-02-01T09:30:50.440Z,1010.73
2017-02-01T09:31:50.395Z,1010.71
2017-02-01T09:32:50.401Z,1010.69
2017-02-01T09:33:50.409Z,1010.7
2017-02-01T09:34:50.417Z,1010.66
2017-02-01T09:35:50.474Z,1010.73
2017-02-01T09:36:50.431Z,1010.68
2017-02-01T09:37:50.440Z,1010.68
2017-02-01T09:38:50.497Z,1010.68
2017-02-01T09:39:50.454Z,1010.7
2017-02-01T09:40:50.460Z,1010.68
2017-02-01T09:41:50.468Z,1010.69
2017-02-01T09:42:50.477Z,1010.69
2017-02-01T09:43:50.485Z,1010.75
2017-02-01T09:44:50.493Z,1010.76
2017-02-01T09:45:50.549Z,1010.71
2017-02-01T09:46:50.508Z,1010.75
2017-02-01T09:47:50.516Z,1010.72
2017-02-01T09:48:50.521Z,1010.77
2017-02-01T09:49:50.530Z,1010.76
2017-02-01T09:50:50.538Z,1010.78
2017-02-01T09:51:50.543Z,1010.81
2017-02-01T09:52:50.553Z,1010.79
2017-02-01T09:53:50.612Z,1010.83
2017-02-01T09:54:50.618Z,1010.81
2017-02-01T09:55:50.576Z,1010.82
2017-02-01T09:56:50.584Z,1010.79
2017-02-01T09:57:50.643Z,1010.92
2017-02-01T09:58:50.600Z,1010.85
2017-02-01T09:59:50.606Z,1010.82
2017-02-01T10:00:50.616Z,1010.86
2017-02-01T10:01:50.627Z,1010.86
2017-02-01T10:02:50.630Z,1010.79
2017-02-01T10:03:50.639Z,1010.84
2017-02-01T10:04:50.650Z,1011.02
2017-02-01T10:05:50.661Z,1011.03
2017-02-01T10:06:50.662Z,1010.97
2017-02-01T10:07:50.671Z,1010.94
2017-02-01T10:08:50.729Z,1010.78
2017-02-01T10:09:50.687Z,1010.74
2017-02-01T10:10:50.744Z,1010.63
2017-02-01T10:11:50.704Z,1010.6
2017-02-01T10:12:50.710Z,1010.61
2017-02-01T10:13:50.770Z,1010.63
2017-02-01T10:14:50.776Z,1010.63
2017-02-01T10:15:50.736Z,1010.62
2017-02-01T10:16:50.743Z,1010.65
2017-02-01T10:17:50.800Z,1010.62
2017-02-01T10:18:50.808Z,1010.59
2017-02-01T10:19:50.766Z,1010.67
2017-02-01T10:20:50.823Z,1010.67
2017-02-01T10:21:50.780Z,1010.63
2017-02-01T10:22:50.790Z,1010.61
2017-02-01T10:23:50.805Z,1010.62
2017-02-01T10:24:50.802Z,1010.62
2017-02-01T10:25:50.811Z,1010.58
2017-02-01T10:26:50.869Z,1010.58
2017-02-01T10:27:50.830Z,1010.66
2017-02-01T10:28:50.835Z,1010.62
2017-02-01T10:29:50.894Z,1010.65
2017-02-01T10:30:50.899Z,1010.59
2017-02-01T10:31:50.858Z,1010.58
2017-02-01T10:32:50.865Z,1010.61
2017-02-01T10:33:50.883Z,1010.58
2017-02-01T10:34:50.880Z,1010.59
2017-02-01T10:35:50.892Z,1010.55
2017-02-01T10:36:50.896Z,1010.56
2017-02-01T10:37:50.901Z,1010.58
2017-02-01T10:38:50.910Z,1010.56
2017-02-01T10:39:50.916Z,1010.56
2017-02-01T10:40:50.975Z,1010.56
2017-02-01T10:41:50.932Z,1010.55
2017-02-01T10:42:50.990Z,1010.55
2017-02-01T10:44:50.956Z,1010.53
2017-02-01T10:45:50.962Z,1010.52
2017-02-01T10:46:50.967Z,1010.53
2017-02-01T10:47:50.976Z,1010.49
2017-02-01T10:48:50.985Z,1010.4
2017-02-01T10:49:51.042Z,1010.42
2017-02-01T10:50:50.998Z,1010.43
2017-02-01T10:51:51.008Z,1010.42
2017-02-01T10:52:51.015Z,1010.35
2017-02-01T10:53:51.072Z,1010.37
2017-02-01T10:54:51.030Z,1010.34
2017-02-01T10:55:51.091Z,1010.35
2017-02-01T10:56:51.095Z,1010.33
2017-02-01T10:57:51.050Z,1010.32
2017-02-01T10:58:51.057Z,1010.33
2017-02-01T10:59:51.067Z,1010.24
2017-02-01T11:00:51.072Z,1010.24
2017-02-01T11:01:51.081Z,1010.22
2017-02-01T11:02:51.089Z,1010.21
2017-02-01T11:03:51.096Z,1010.16
2017-02-01T11:04:51.153Z,1010.1
2017-02-01T11:05:51.110Z,1010.09
2017-02-01T11:06:51.120Z,1010.1
2017-02-01T11:07:51.126Z,1010.11
2017-02-01T11:08:51.165Z,1010.06
2017-02-01T11:09:51.193Z,1010.01
2017-02-01T11:10:51.148Z,1010.04
2017-02-01T11:11:51.155Z,1009.99
2017-02-01T11:12:51.212Z,1009.96
2017-02-01T11:13:51.171Z,1009.98
2017-02-01T11:14:51.178Z,1010
2017-02-01T11:15:51.186Z,1009.91
2017-02-01T11:16:51.192Z,1009.9
2017-02-01T11:17:51.200Z,1009.88
2017-02-01T11:18:51.207Z,1009.88
2017-02-01T11:19:51.214Z,1009.83
2017-02-01T11:20:51.271Z,1009.8
2017-02-01T11:21:51.230Z,1009.76
2017-02-01T11:22:51.244Z,1009.74
2017-02-01T11:23:51.296Z,1009.75
2017-02-01T11:24:51.252Z,1009.72
2017-02-01T11:25:51.259Z,1009.73
2017-02-01T11:26:51.266Z,1009.69
2017-02-01T11:27:51.275Z,1009.65
2017-02-01T11:28:51.282Z,1009.65
2017-02-01T11:29:51.289Z,1009.64
2017-02-01T11:30:51.297Z,1009.56
2017-02-01T11:31:51.303Z,1009.57
2017-02-01T11:32:51.312Z,1009.56
2017-02-01T11:33:51.320Z,1009.54
2017-02-01T11:34:51.325Z,1009.57
2017-02-01T11:35:51.336Z,1009.52
2017-02-01T11:36:51.341Z,1009.49
2017-02-01T11:37:51.400Z,1009.46
2017-02-01T11:38:51.362Z,1009.48
2017-02-01T11:39:51.415Z,1009.45
2017-02-01T11:40:51.422Z,1009.47
2017-02-01T11:41:51.378Z,1009.48
2017-02-01T11:42:51.388Z,1009.46
2017-02-01T11:43:51.394Z,1009.43
2017-02-01T11:44:51.401Z,1009.43
2017-02-01T11:45:51.410Z,1009.42
2017-02-01T11:46:51.417Z,1009.42
2017-02-01T11:47:51.425Z,1009.42
2017-02-01T11:48:51.481Z,1009.39
2017-02-01T11:49:51.492Z,1009.37
2017-02-01T11:50:51.448Z,1009.33
2017-02-01T11:51:51.454Z,1009.34
2017-02-01T11:52:51.461Z,1009.28
2017-02-01T11:53:51.467Z,1009.27
2017-02-01T11:54:51.476Z,1009.18
2017-02-01T11:55:51.531Z,1009.14
2017-02-01T11:56:51.490Z,1009.14
2017-02-01T11:57:51.498Z,1009.1
2017-02-01T11:58:51.505Z,1009.07
2017-02-01T11:59:51.571Z,1009.06
2017-02-01T12:00:51.519Z,1009.13
2017-02-01T12:01:51.577Z,1009.09
2017-02-01T12:02:51.584Z,1009.06
2017-02-01T12:03:51.540Z,1009.04
2017-02-01T12:04:51.547Z,1009.01
2017-02-01T12:05:51.554Z,1009.03
2017-02-01T12:06:51.561Z,1008.95
2017-02-01T12:07:51.619Z,1008.97
2017-02-01T12:08:51.583Z,1008.96
2017-02-01T12:09:51.634Z,1008.91
2017-02-01T12:10:51.588Z,1008.87